sensor_id;sensor_type;location;lat;lon;timestamp;temperature;humidity
38910;DHT22;24676;51.360;12.354;2023-10-31T00:02:35;12.00;99.90
38910;DHT22;24676;51.360;12.354;2023-10-31T00:05:19;12.00;99.90
38910;DHT22;24676;51.360;12.354;2023-10-31T00:08:04;12.00;99.90
38910;DHT22;24676;51.360;12.354;2023-10-31T00:10:48;12.00;99.90
38910;DHT22;24676;51.360;12.354;2023-10-31T00:13:32;11.90;99.90
38910;DHT22;24676;51.360;12.354;2023-10-31T00:16:16;11.90;99.90
38910;DHT22;24676;51.360;12.354;2023-10-31T00:19:00;11.90;99.90
38910;DHT22;24676;51.360;12.354;2023-10-31T00:21:44;11.90;99.90
38910;DHT22;24676;51.360;12.354;2023-10-31T00:24:29;11.90;99.90
38910;DHT22;24676;51.360;12.354;2023-10-31T00:27:13;11.90;99.90
38910;DHT22;24676;51.360;12.354;2023-10-31T00:29:58;12.00;99.90
38910;DHT22;24676;51.360;12.354;2023-10-31T00:32:42;12.00;99.90
38910;DHT22;24676;51.360;12.354;2023-10-31T00:35:29;11.90;99.90
38910;DHT22;24676;51.360;12.354;2023-10-31T00:38:14;12.00;99.90
38910;DHT22;24676;51.360;12.354;2023-10-31T00:40:58;12.00;99.90
38910;DHT22;24676;51.360;12.354;2023-10-31T00:43:43;12.00;99.90
38910;DHT22;24676;51.360;12.354;2023-10-31T00:46:27;12.00;99.90
38910;DHT22;24676;51.360;12.354;2023-10-31T00:49:11;11.90;99.90
38910;DHT22;24676;51.360;12.354;2023-10-31T00:51:55;11.90;99.90
38910;DHT22;24676;51.360;12.354;2023-10-31T00:54:39;11.90;99.90
38910;DHT22;24676;51.360;12.354;2023-10-31T00:57:24;11.90;99.90
38910;DHT22;24676;51.360;12.354;2023-10-31T01:00:08;11.90;99.90
38910;DHT22;24676;51.360;12.354;2023-10-31T01:02:53;11.90;99.90
38910;DHT22;24676;51.360;12.354;2023-10-31T01:05:37;11.90;99.90
38910;DHT22;24676;51.360;12.354;2023-10-31T01:08:22;11.90;99.90
38910;DHT22;24676;51.360;12.354;2023-10-31T01:11:06;11.90;99.90
38910;DHT22;24676;51.360;12.354;2023-10-31T01:13:50;11.80;99.90
38910;DHT22;24676;51.360;12.354;2023-10-31T01:16:34;11.80;99.90
38910;DHT22;24676;51.360;12.354;2023-10-31T01:19:18;11.80;99.90
38910;DHT22;24676;51.360;12.354;2023-10-31T01:22:02;11.90;99.90
38910;DHT22;24676;51.360;12.354;2023-10-31T01:24:47;11.80;99.90
38910;DHT22;24676;51.360;12.354;2023-10-31T01:27:31;11.80;99.90
38910;DHT22;24676;51.360;12.354;2023-10-31T01:30:15;11.80;99.90
38910;DHT22;24676;51.360;12.354;2023-10-31T01:32:59;11.80;99.90
38910;DHT22;24676;51.360;12.354;2023-10-31T01:35:43;11.80;99.90
38910;DHT22;24676;51.360;12.354;2023-10-31T01:38:27;11.80;99.90
38910;DHT22;24676;51.360;12.354;2023-10-31T01:41:12;11.80;99.90
38910;DHT22;24676;51.360;12.354;2023-10-31T01:43:56;11.80;99.90
38910;DHT22;24676;51.360;12.354;2023-10-31T01:46:40;11.80;99.90
38910;DHT22;24676;51.360;12.354;2023-10-31T01:49:24;11.90;99.90
38910;DHT22;24676;51.360;12.354;2023-10-31T01:52:08;11.90;99.90
38910;DHT22;24676;51.360;12.354;2023-10-31T01:54:52;11.80;99.90
38910;DHT22;24676;51.360;12.354;2023-10-31T01:57:36;11.90;99.90
38910;DHT22;24676;51.360;12.354;2023-10-31T02:00:21;11.90;99.90
38910;DHT22;24676;51.360;12.354;2023-10-31T02:03:05;11.90;99.90
38910;DHT22;24676;51.360;12.354;2023-10-31T02:05:50;11.90;99.90
38910;DHT22;24676;51.360;12.354;2023-10-31T02:08:34;11.90;99.90
38910;DHT22;24676;51.360;12.354;2023-10-31T02:11:19;11.90;99.90
38910;DHT22;24676;51.360;12.354;2023-10-31T02:14:03;12.00;99.90
38910;DHT22;24676;51.360;12.354;2023-10-31T02:16:47;11.90;99.90
38910;DHT22;24676;51.360;12.354;2023-10-31T02:19:31;11.90;99.90
38910;DHT22;24676;51.360;12.354;2023-10-31T02:22:15;11.90;99.90
38910;DHT22;24676;51.360;12.354;2023-10-31T02:25:00;11.90;99.90
38910;DHT22;24676;51.360;12.354;2023-10-31T02:27:44;11.90;99.90
38910;DHT22;24676;51.360;12.354;2023-10-31T02:30:28;11.90;99.90
38910;DHT22;24676;51.360;12.354;2023-10-31T02:33:12;11.90;99.90
38910;DHT22;24676;51.360;12.354;2023-10-31T02:35:56;11.90;99.90
38910;DHT22;24676;51.360;12.354;2023-10-31T02:38:41;12.00;99.90
38910;DHT22;24676;51.360;12.354;2023-10-31T02:41:25;12.00;99.90
38910;DHT22;24676;51.360;12.354;2023-10-31T02:44:09;12.00;99.90
38910;DHT22;24676;51.360;12.354;2023-10-31T02:46:53;12.00;99.90
38910;DHT22;24676;51.360;12.354;2023-10-31T02:49:37;12.00;99.90
38910;DHT22;24676;51.360;12.354;2023-10-31T02:52:22;12.00;99.90
38910;DHT22;24676;51.360;12.354;2023-10-31T02:55:06;12.00;99.90
38910;DHT22;24676;51.360;12.354;2023-10-31T02:57:50;12.00;99.90
38910;DHT22;24676;51.360;12.354;2023-10-31T03:00:34;12.00;99.90
38910;DHT22;24676;51.360;12.354;2023-10-31T03:03:18;12.00;99.90
38910;DHT22;24676;51.360;12.354;2023-10-31T03:06:04;12.00;99.90
38910;DHT22;24676;51.360;12.354;2023-10-31T03:08:48;12.00;99.90
38910;DHT22;24676;51.360;12.354;2023-10-31T03:11:32;11.90;99.90
38910;DHT22;24676;51.360;12.354;2023-10-31T03:14:17;11.90;99.90
38910;DHT22;24676;51.360;12.354;2023-10-31T03:17:01;11.90;99.90
38910;DHT22;24676;51.360;12.354;2023-10-31T03:19:45;11.90;99.90
38910;DHT22;24676;51.360;12.354;2023-10-31T03:22:29;11.90;99.90
38910;DHT22;24676;51.360;12.354;2023-10-31T03:25:13;11.90;99.90
38910;DHT22;24676;51.360;12.354;2023-10-31T03:27:57;11.90;99.90
38910;DHT22;24676;51.360;12.354;2023-10-31T03:30:42;11.90;99.90
38910;DHT22;24676;51.360;12.354;2023-10-31T03:33:26;11.90;99.90
38910;DHT22;24676;51.360;12.354;2023-10-31T03:36:10;11.90;99.90
38910;DHT22;24676;51.360;12.354;2023-10-31T03:38:54;11.90;99.90
38910;DHT22;24676;51.360;12.354;2023-10-31T03:41:38;11.90;99.90
38910;DHT22;24676;51.360;12.354;2023-10-31T03:44:23;11.90;99.90
38910;DHT22;24676;51.360;12.354;2023-10-31T03:47:07;11.90;99.90
38910;DHT22;24676;51.360;12.354;2023-10-31T03:49:51;11.90;99.90
38910;DHT22;24676;51.360;12.354;2023-10-31T03:52:35;11.90;99.90
38910;DHT22;24676;51.360;12.354;2023-10-31T03:55:19;11.90;99.90
38910;DHT22;24676;51.360;12.354;2023-10-31T03:58:03;11.90;99.90
38910;DHT22;24676;51.360;12.354;2023-10-31T04:00:48;11.90;99.90
38910;DHT22;24676;51.360;12.354;2023-10-31T04:03:32;11.90;99.90
38910;DHT22;24676;51.360;12.354;2023-10-31T04:06:16;11.90;99.90
38910;DHT22;24676;51.360;12.354;2023-10-31T04:09:00;11.90;99.90
38910;DHT22;24676;51.360;12.354;2023-10-31T04:11:44;11.90;99.90
38910;DHT22;24676;51.360;12.354;2023-10-31T04:14:29;11.90;99.90
38910;DHT22;24676;51.360;12.354;2023-10-31T04:17:13;12.00;99.90
38910;DHT22;24676;51.360;12.354;2023-10-31T04:19:57;11.90;99.90
38910;DHT22;24676;51.360;12.354;2023-10-31T04:22:41;12.00;99.90
38910;DHT22;24676;51.360;12.354;2023-10-31T04:25:26;12.00;99.90
38910;DHT22;24676;51.360;12.354;2023-10-31T04:28:12;12.00;99.90
38910;DHT22;24676;51.360;12.354;2023-10-31T04:30:58;12.00;99.90
38910;DHT22;24676;51.360;12.354;2023-10-31T04:33:43;12.00;99.90
38910;DHT22;24676;51.360;12.354;2023-10-31T04:36:27;12.00;99.90
38910;DHT22;24676;51.360;12.354;2023-10-31T04:39:11;12.00;99.90
38910;DHT22;24676;51.360;12.354;2023-10-31T04:41:55;12.00;99.90
38910;DHT22;24676;51.360;12.354;2023-10-31T04:44:39;12.00;99.90
38910;DHT22;24676;51.360;12.354;2023-10-31T04:47:23;12.00;99.90
38910;DHT22;24676;51.360;12.354;2023-10-31T04:50:08;12.00;99.90
38910;DHT22;24676;51.360;12.354;2023-10-31T04:52:52;12.00;99.90
38910;DHT22;24676;51.360;12.354;2023-10-31T04:55:36;12.00;99.90
38910;DHT22;24676;51.360;12.354;2023-10-31T04:58:20;12.00;99.90
38910;DHT22;24676;51.360;12.354;2023-10-31T05:01:07;12.00;99.90
38910;DHT22;24676;51.360;12.354;2023-10-31T05:03:51;12.00;99.90
38910;DHT22;24676;51.360;12.354;2023-10-31T05:06:36;12.00;99.90
38910;DHT22;24676;51.360;12.354;2023-10-31T05:09:21;12.00;99.90
38910;DHT22;24676;51.360;12.354;2023-10-31T05:12:05;12.00;99.90
38910;DHT22;24676;51.360;12.354;2023-10-31T05:14:49;12.00;99.90
38910;DHT22;24676;51.360;12.354;2023-10-31T05:17:33;12.00;99.90
38910;DHT22;24676;51.360;12.354;2023-10-31T05:20:17;12.00;99.90
38910;DHT22;24676;51.360;12.354;2023-10-31T05:23:02;12.00;99.90
38910;DHT22;24676;51.360;12.354;2023-10-31T05:25:46;12.00;99.90
38910;DHT22;24676;51.360;12.354;2023-10-31T05:28:30;12.00;99.90
38910;DHT22;24676;51.360;12.354;2023-10-31T05:31:17;12.00;99.90
38910;DHT22;24676;51.360;12.354;2023-10-31T05:34:01;12.00;99.90
38910;DHT22;24676;51.360;12.354;2023-10-31T05:36:47;12.00;99.90
38910;DHT22;24676;51.360;12.354;2023-10-31T05:39:31;12.00;99.90
38910;DHT22;24676;51.360;12.354;2023-10-31T05:42:16;11.90;99.90
38910;DHT22;24676;51.360;12.354;2023-10-31T05:45:00;11.90;99.90
38910;DHT22;24676;51.360;12.354;2023-10-31T05:47:44;11.90;99.90
38910;DHT22;24676;51.360;12.354;2023-10-31T05:50:28;11.90;99.90
38910;DHT22;24676;51.360;12.354;2023-10-31T05:53:12;11.80;99.90
38910;DHT22;24676;51.360;12.354;2023-10-31T05:55:57;11.80;99.90
38910;DHT22;24676;51.360;12.354;2023-10-31T05:58:41;11.70;99.90
38910;DHT22;24676;51.360;12.354;2023-10-31T06:01:25;11.80;99.90
38910;DHT22;24676;51.360;12.354;2023-10-31T06:04:09;11.80;99.90
38910;DHT22;24676;51.360;12.354;2023-10-31T06:06:53;11.70;99.90
38910;DHT22;24676;51.360;12.354;2023-10-31T06:09:38;11.70;99.90
38910;DHT22;24676;51.360;12.354;2023-10-31T06:12:22;11.70;99.90
38910;DHT22;24676;51.360;12.354;2023-10-31T06:15:06;11.70;99.90
38910;DHT22;24676;51.360;12.354;2023-10-31T06:17:52;11.70;99.90
38910;DHT22;24676;51.360;12.354;2023-10-31T06:20:36;11.70;99.90
38910;DHT22;24676;51.360;12.354;2023-10-31T06:23:20;11.70;99.90
38910;DHT22;24676;51.360;12.354;2023-10-31T06:26:04;11.60;99.90
38910;DHT22;24676;51.360;12.354;2023-10-31T06:28:49;11.60;99.90
38910;DHT22;24676;51.360;12.354;2023-10-31T06:31:33;11.60;99.90
38910;DHT22;24676;51.360;12.354;2023-10-31T06:34:17;11.50;99.90
38910;DHT22;24676;51.360;12.354;2023-10-31T06:37:01;11.50;99.90
38910;DHT22;24676;51.360;12.354;2023-10-31T06:39:47;11.50;99.90
38910;DHT22;24676;51.360;12.354;2023-10-31T06:42:31;11.40;99.90
38910;DHT22;24676;51.360;12.354;2023-10-31T06:45:15;11.40;99.90
38910;DHT22;24676;51.360;12.354;2023-10-31T06:47:59;11.40;99.90
38910;DHT22;24676;51.360;12.354;2023-10-31T06:50:43;11.40;99.90
38910;DHT22;24676;51.360;12.354;2023-10-31T06:53:28;11.50;99.90
38910;DHT22;24676;51.360;12.354;2023-10-31T06:56:12;11.50;99.90
38910;DHT22;24676;51.360;12.354;2023-10-31T06:58:56;11.60;99.90
38910;DHT22;24676;51.360;12.354;2023-10-31T07:01:40;11.60;99.90
38910;DHT22;24676;51.360;12.354;2023-10-31T07:04:25;11.70;99.90
38910;DHT22;24676;51.360;12.354;2023-10-31T07:07:09;11.70;99.90
38910;DHT22;24676;51.360;12.354;2023-10-31T07:09:53;11.70;99.90
38910;DHT22;24676;51.360;12.354;2023-10-31T07:12:38;11.70;99.90
38910;DHT22;24676;51.360;12.354;2023-10-31T07:15:22;11.70;99.90
38910;DHT22;24676;51.360;12.354;2023-10-31T07:18:06;11.60;99.90
38910;DHT22;24676;51.360;12.354;2023-10-31T07:20:51;11.70;99.90
38910;DHT22;24676;51.360;12.354;2023-10-31T07:23:35;11.70;99.90
38910;DHT22;24676;51.360;12.354;2023-10-31T07:26:21;11.70;99.90
38910;DHT22;24676;51.360;12.354;2023-10-31T07:29:05;11.80;99.90
38910;DHT22;24676;51.360;12.354;2023-10-31T07:31:49;11.90;99.90
38910;DHT22;24676;51.360;12.354;2023-10-31T07:34:33;12.00;99.90
38910;DHT22;24676;51.360;12.354;2023-10-31T07:37:18;12.10;99.90
38910;DHT22;24676;51.360;12.354;2023-10-31T07:40:02;12.30;99.90
38910;DHT22;24676;51.360;12.354;2023-10-31T07:42:48;12.40;99.90
38910;DHT22;24676;51.360;12.354;2023-10-31T07:45:32;12.50;99.90
38910;DHT22;24676;51.360;12.354;2023-10-31T07:48:16;12.80;99.90
38910;DHT22;24676;51.360;12.354;2023-10-31T07:51:00;12.90;99.90
38910;DHT22;24676;51.360;12.354;2023-10-31T07:53:44;12.80;99.90
38910;DHT22;24676;51.360;12.354;2023-10-31T07:56:30;12.70;99.90
38910;DHT22;24676;51.360;12.354;2023-10-31T07:59:17;12.60;99.90
38910;DHT22;24676;51.360;12.354;2023-10-31T08:02:01;12.50;99.90
38910;DHT22;24676;51.360;12.354;2023-10-31T08:04:45;12.50;99.90
38910;DHT22;24676;51.360;12.354;2023-10-31T08:07:29;12.50;99.90
38910;DHT22;24676;51.360;12.354;2023-10-31T08:10:14;12.60;99.90
38910;DHT22;24676;51.360;12.354;2023-10-31T08:12:58;12.60;99.90
38910;DHT22;24676;51.360;12.354;2023-10-31T08:15:42;12.70;99.90
38910;DHT22;24676;51.360;12.354;2023-10-31T08:18:26;12.70;99.90
38910;DHT22;24676;51.360;12.354;2023-10-31T08:21:11;12.70;99.90
38910;DHT22;24676;51.360;12.354;2023-10-31T08:23:55;12.80;99.90
38910;DHT22;24676;51.360;12.354;2023-10-31T08:26:39;13.00;99.90
38910;DHT22;24676;51.360;12.354;2023-10-31T08:29:23;13.30;99.90
38910;DHT22;24676;51.360;12.354;2023-10-31T08:32:07;13.40;99.90
38910;DHT22;24676;51.360;12.354;2023-10-31T08:34:51;13.50;99.90
38910;DHT22;24676;51.360;12.354;2023-10-31T08:37:38;13.50;99.90
38910;DHT22;24676;51.360;12.354;2023-10-31T08:40:22;13.40;99.90
38910;DHT22;24676;51.360;12.354;2023-10-31T08:43:06;13.50;99.90
38910;DHT22;24676;51.360;12.354;2023-10-31T08:45:51;13.90;99.90
38910;DHT22;24676;51.360;12.354;2023-10-31T08:48:35;14.10;99.90
38910;DHT22;24676;51.360;12.354;2023-10-31T08:51:19;14.20;99.90
38910;DHT22;24676;51.360;12.354;2023-10-31T08:54:03;14.30;99.90
38910;DHT22;24676;51.360;12.354;2023-10-31T08:56:47;14.40;99.90
38910;DHT22;24676;51.360;12.354;2023-10-31T08:59:31;14.40;99.90
38910;DHT22;24676;51.360;12.354;2023-10-31T09:02:16;14.60;99.90
38910;DHT22;24676;51.360;12.354;2023-10-31T09:05:00;14.80;99.90
38910;DHT22;24676;51.360;12.354;2023-10-31T09:07:44;14.80;99.90
38910;DHT22;24676;51.360;12.354;2023-10-31T09:10:29;14.80;99.90
38910;DHT22;24676;51.360;12.354;2023-10-31T09:13:14;14.50;99.90
38910;DHT22;24676;51.360;12.354;2023-10-31T09:15:58;14.20;99.90
38910;DHT22;24676;51.360;12.354;2023-10-31T09:18:42;14.10;99.90
38910;DHT22;24676;51.360;12.354;2023-10-31T09:21:27;13.90;99.90
38910;DHT22;24676;51.360;12.354;2023-10-31T09:24:11;13.80;99.90
38910;DHT22;24676;51.360;12.354;2023-10-31T09:26:55;13.90;99.90
38910;DHT22;24676;51.360;12.354;2023-10-31T09:29:40;14.80;99.90
38910;DHT22;24676;51.360;12.354;2023-10-31T09:32:24;15.90;99.90
38910;DHT22;24676;51.360;12.354;2023-10-31T09:35:09;16.70;99.90
38910;DHT22;24676;51.360;12.354;2023-10-31T09:37:53;16.30;99.90
38910;DHT22;24676;51.360;12.354;2023-10-31T09:40:40;16.30;99.90
38910;DHT22;24676;51.360;12.354;2023-10-31T09:43:25;17.00;99.90
38910;DHT22;24676;51.360;12.354;2023-10-31T09:46:09;17.80;95.30
38910;DHT22;24676;51.360;12.354;2023-10-31T09:48:54;17.70;94.20
38910;DHT22;24676;51.360;12.354;2023-10-31T09:51:38;17.60;95.00
38910;DHT22;24676;51.360;12.354;2023-10-31T09:54:23;17.30;93.80
38910;DHT22;24676;51.360;12.354;2023-10-31T09:57:07;16.90;97.30
38910;DHT22;24676;51.360;12.354;2023-10-31T09:59:51;16.80;99.20
38910;DHT22;24676;51.360;12.354;2023-10-31T10:02:35;16.60;98.50
38910;DHT22;24676;51.360;12.354;2023-10-31T10:05:19;16.40;97.80
38910;DHT22;24676;51.360;12.354;2023-10-31T10:08:03;16.20;98.60
38910;DHT22;24676;51.360;12.354;2023-10-31T10:10:47;16.20;99.40
38910;DHT22;24676;51.360;12.354;2023-10-31T10:13:32;16.10;98.40
38910;DHT22;24676;51.360;12.354;2023-10-31T10:16:32;16.00;98.30
38910;DHT22;24676;51.360;12.354;2023-10-31T10:19:19;16.10;99.00
38910;DHT22;24676;51.360;12.354;2023-10-31T10:22:04;16.10;97.20
38910;DHT22;24676;51.360;12.354;2023-10-31T10:24:48;15.90;98.80
38910;DHT22;24676;51.360;12.354;2023-10-31T10:27:33;15.70;99.90
38910;DHT22;24676;51.360;12.354;2023-10-31T10:30:17;15.60;99.90
38910;DHT22;24676;51.360;12.354;2023-10-31T10:33:01;15.40;99.90
38910;DHT22;24676;51.360;12.354;2023-10-31T10:35:45;15.20;99.90
38910;DHT22;24676;51.360;12.354;2023-10-31T10:38:29;15.10;99.90
38910;DHT22;24676;51.360;12.354;2023-10-31T10:41:17;15.20;99.90
38910;DHT22;24676;51.360;12.354;2023-10-31T10:44:09;15.10;99.90
38910;DHT22;24676;51.360;12.354;2023-10-31T10:46:55;14.70;99.90
38910;DHT22;24676;51.360;12.354;2023-10-31T10:49:41;14.40;99.90
38910;DHT22;24676;51.360;12.354;2023-10-31T10:52:30;14.30;99.90
38910;DHT22;24676;51.360;12.354;2023-10-31T10:55:21;14.20;99.90
38910;DHT22;24676;51.360;12.354;2023-10-31T10:58:09;14.40;99.90
38910;DHT22;24676;51.360;12.354;2023-10-31T11:00:57;14.50;99.90
38910;DHT22;24676;51.360;12.354;2023-10-31T11:03:42;14.70;99.90
38910;DHT22;24676;51.360;12.354;2023-10-31T11:06:27;14.70;99.90
38910;DHT22;24676;51.360;12.354;2023-10-31T11:09:13;14.80;99.90
38910;DHT22;24676;51.360;12.354;2023-10-31T11:11:57;14.70;99.90
38910;DHT22;24676;51.360;12.354;2023-10-31T11:14:42;14.60;99.90
38910;DHT22;24676;51.360;12.354;2023-10-31T11:17:31;14.50;99.90
38910;DHT22;24676;51.360;12.354;2023-10-31T11:20:15;14.30;99.90
38910;DHT22;24676;51.360;12.354;2023-10-31T11:23:00;14.30;99.90
38910;DHT22;24676;51.360;12.354;2023-10-31T11:25:49;14.40;99.90
38910;DHT22;24676;51.360;12.354;2023-10-31T11:28:34;14.30;99.90
38910;DHT22;24676;51.360;12.354;2023-10-31T11:31:20;14.20;99.90
38910;DHT22;24676;51.360;12.354;2023-10-31T11:34:05;14.20;99.90
38910;DHT22;24676;51.360;12.354;2023-10-31T11:36:50;14.10;99.90
38910;DHT22;24676;51.360;12.354;2023-10-31T11:39:35;14.00;99.90
38910;DHT22;24676;51.360;12.354;2023-10-31T11:42:19;14.30;99.90
38910;DHT22;24676;51.360;12.354;2023-10-31T11:45:03;14.40;99.90
38910;DHT22;24676;51.360;12.354;2023-10-31T11:47:48;14.30;99.90
38910;DHT22;24676;51.360;12.354;2023-10-31T11:50:32;14.00;99.90
38910;DHT22;24676;51.360;12.354;2023-10-31T11:53:16;13.80;99.90
38910;DHT22;24676;51.360;12.354;2023-10-31T11:56:01;13.70;99.90
38910;DHT22;24676;51.360;12.354;2023-10-31T11:58:54;13.60;99.90
38910;DHT22;24676;51.360;12.354;2023-10-31T12:01:45;13.60;99.90
38910;DHT22;24676;51.360;12.354;2023-10-31T12:04:30;13.50;99.90
38910;DHT22;24676;51.360;12.354;2023-10-31T12:07:14;13.30;99.90
38910;DHT22;24676;51.360;12.354;2023-10-31T12:09:59;13.20;99.90
38910;DHT22;24676;51.360;12.354;2023-10-31T12:12:43;13.20;99.90
38910;DHT22;24676;51.360;12.354;2023-10-31T12:15:27;13.30;99.90
38910;DHT22;24676;51.360;12.354;2023-10-31T12:18:11;13.40;99.90
38910;DHT22;24676;51.360;12.354;2023-10-31T12:20:55;13.50;99.90
38910;DHT22;24676;51.360;12.354;2023-10-31T12:23:40;13.50;99.90
38910;DHT22;24676;51.360;12.354;2023-10-31T12:26:24;13.70;99.90
38910;DHT22;24676;51.360;12.354;2023-10-31T12:31:57;14.40;99.90
38910;DHT22;24676;51.360;12.354;2023-10-31T12:34:43;14.50;99.90
38910;DHT22;24676;51.360;12.354;2023-10-31T12:37:27;14.40;99.90
38910;DHT22;24676;51.360;12.354;2023-10-31T12:40:12;14.10;99.90
38910;DHT22;24676;51.360;12.354;2023-10-31T12:42:58;14.10;99.90
38910;DHT22;24676;51.360;12.354;2023-10-31T12:45:43;14.10;99.90
38910;DHT22;24676;51.360;12.354;2023-10-31T12:48:27;14.00;99.90
38910;DHT22;24676;51.360;12.354;2023-10-31T12:51:11;14.10;99.90
38910;DHT22;24676;51.360;12.354;2023-10-31T12:53:55;14.00;99.90
38910;DHT22;24676;51.360;12.354;2023-10-31T12:56:40;14.00;99.90
38910;DHT22;24676;51.360;12.354;2023-10-31T12:59:25;14.00;99.90
38910;DHT22;24676;51.360;12.354;2023-10-31T13:02:09;14.10;99.90
38910;DHT22;24676;51.360;12.354;2023-10-31T13:04:54;14.20;99.90
38910;DHT22;24676;51.360;12.354;2023-10-31T13:07:51;14.00;99.90
38910;DHT22;24676;51.360;12.354;2023-10-31T13:10:36;13.90;99.90
38910;DHT22;24676;51.360;12.354;2023-10-31T13:13:20;13.80;99.90
38910;DHT22;24676;51.360;12.354;2023-10-31T13:16:04;13.70;99.90
38910;DHT22;24676;51.360;12.354;2023-10-31T13:18:49;13.60;99.90
38910;DHT22;24676;51.360;12.354;2023-10-31T13:21:33;13.60;99.90
38910;DHT22;24676;51.360;12.354;2023-10-31T13:24:17;13.70;99.90
38910;DHT22;24676;51.360;12.354;2023-10-31T13:27:02;13.80;99.90
38910;DHT22;24676;51.360;12.354;2023-10-31T13:29:48;13.80;99.90
38910;DHT22;24676;51.360;12.354;2023-10-31T13:32:34;13.80;99.90
38910;DHT22;24676;51.360;12.354;2023-10-31T13:35:18;13.70;99.90
38910;DHT22;24676;51.360;12.354;2023-10-31T13:38:04;13.60;99.90
38910;DHT22;24676;51.360;12.354;2023-10-31T13:40:48;13.60;99.90
38910;DHT22;24676;51.360;12.354;2023-10-31T13:43:32;13.50;99.90
38910;DHT22;24676;51.360;12.354;2023-10-31T13:46:16;13.40;99.90
38910;DHT22;24676;51.360;12.354;2023-10-31T13:49:00;13.40;99.90
38910;DHT22;24676;51.360;12.354;2023-10-31T13:51:46;13.30;99.90
38910;DHT22;24676;51.360;12.354;2023-10-31T13:54:30;13.30;99.90
38910;DHT22;24676;51.360;12.354;2023-10-31T13:57:14;13.30;99.90
38910;DHT22;24676;51.360;12.354;2023-10-31T14:00:01;13.20;99.90
38910;DHT22;24676;51.360;12.354;2023-10-31T14:02:45;13.20;99.90
38910;DHT22;24676;51.360;12.354;2023-10-31T14:05:30;13.10;99.90
38910;DHT22;24676;51.360;12.354;2023-10-31T14:08:14;13.00;99.90
38910;DHT22;24676;51.360;12.354;2023-10-31T14:10:58;12.90;99.90
38910;DHT22;24676;51.360;12.354;2023-10-31T14:13:43;12.90;99.90
38910;DHT22;24676;51.360;12.354;2023-10-31T14:16:29;12.90;99.90
38910;DHT22;24676;51.360;12.354;2023-10-31T14:19:16;13.00;99.90
38910;DHT22;24676;51.360;12.354;2023-10-31T14:22:01;13.00;99.90
38910;DHT22;24676;51.360;12.354;2023-10-31T14:24:46;13.10;99.90
38910;DHT22;24676;51.360;12.354;2023-10-31T14:27:30;13.10;99.90
38910;DHT22;24676;51.360;12.354;2023-10-31T14:30:14;13.10;99.90
38910;DHT22;24676;51.360;12.354;2023-10-31T14:32:59;13.10;99.90
38910;DHT22;24676;51.360;12.354;2023-10-31T14:35:46;13.10;99.90
38910;DHT22;24676;51.360;12.354;2023-10-31T14:38:30;13.10;99.90
38910;DHT22;24676;51.360;12.354;2023-10-31T14:41:14;13.10;99.90
38910;DHT22;24676;51.360;12.354;2023-10-31T14:43:59;13.00;99.90
38910;DHT22;24676;51.360;12.354;2023-10-31T14:46:44;13.00;99.90
38910;DHT22;24676;51.360;12.354;2023-10-31T14:49:29;13.00;99.90
38910;DHT22;24676;51.360;12.354;2023-10-31T14:52:13;12.90;99.90
38910;DHT22;24676;51.360;12.354;2023-10-31T14:54:58;12.90;99.90
38910;DHT22;24676;51.360;12.354;2023-10-31T14:57:42;12.90;99.90
38910;DHT22;24676;51.360;12.354;2023-10-31T15:00:26;12.80;99.90
38910;DHT22;24676;51.360;12.354;2023-10-31T15:03:10;12.80;99.90
38910;DHT22;24676;51.360;12.354;2023-10-31T15:05:55;12.80;99.90
38910;DHT22;24676;51.360;12.354;2023-10-31T15:08:39;12.80;99.90
38910;DHT22;24676;51.360;12.354;2023-10-31T15:11:23;12.80;99.90
38910;DHT22;24676;51.360;12.354;2023-10-31T15:14:07;12.70;99.90
38910;DHT22;24676;51.360;12.354;2023-10-31T15:16:51;12.70;99.90
38910;DHT22;24676;51.360;12.354;2023-10-31T15:19:36;12.70;99.90
38910;DHT22;24676;51.360;12.354;2023-10-31T15:22:20;12.70;99.90
38910;DHT22;24676;51.360;12.354;2023-10-31T15:25:05;12.60;99.90
38910;DHT22;24676;51.360;12.354;2023-10-31T15:27:49;12.60;99.90
38910;DHT22;24676;51.360;12.354;2023-10-31T15:30:34;12.60;99.90
38910;DHT22;24676;51.360;12.354;2023-10-31T15:33:18;12.60;99.90
38910;DHT22;24676;51.360;12.354;2023-10-31T15:36:03;12.60;99.90
38910;DHT22;24676;51.360;12.354;2023-10-31T15:38:47;12.50;99.90
38910;DHT22;24676;51.360;12.354;2023-10-31T15:41:31;12.50;99.90
38910;DHT22;24676;51.360;12.354;2023-10-31T15:44:15;12.60;99.90
38910;DHT22;24676;51.360;12.354;2023-10-31T15:46:59;12.60;99.90
38910;DHT22;24676;51.360;12.354;2023-10-31T15:49:43;12.50;99.90
38910;DHT22;24676;51.360;12.354;2023-10-31T15:52:27;12.50;99.90
38910;DHT22;24676;51.360;12.354;2023-10-31T15:55:11;12.50;99.90
38910;DHT22;24676;51.360;12.354;2023-10-31T15:57:56;12.60;99.90
38910;DHT22;24676;51.360;12.354;2023-10-31T16:00:41;12.60;99.90
38910;DHT22;24676;51.360;12.354;2023-10-31T16:03:25;12.50;99.90
38910;DHT22;24676;51.360;12.354;2023-10-31T16:06:09;12.50;99.90
38910;DHT22;24676;51.360;12.354;2023-10-31T16:08:54;12.50;99.90
38910;DHT22;24676;51.360;12.354;2023-10-31T16:11:39;12.40;99.90
38910;DHT22;24676;51.360;12.354;2023-10-31T16:14:23;12.40;99.90
38910;DHT22;24676;51.360;12.354;2023-10-31T16:17:09;12.40;99.90
38910;DHT22;24676;51.360;12.354;2023-10-31T16:19:53;12.30;99.90
38910;DHT22;24676;51.360;12.354;2023-10-31T16:22:37;12.30;99.90
38910;DHT22;24676;51.360;12.354;2023-10-31T16:25:21;12.30;99.90
38910;DHT22;24676;51.360;12.354;2023-10-31T16:28:05;12.30;99.90
38910;DHT22;24676;51.360;12.354;2023-10-31T16:30:49;12.30;99.90
38910;DHT22;24676;51.360;12.354;2023-10-31T16:33:34;12.30;99.90
38910;DHT22;24676;51.360;12.354;2023-10-31T16:36:19;12.30;99.90
38910;DHT22;24676;51.360;12.354;2023-10-31T16:39:05;12.30;99.90
38910;DHT22;24676;51.360;12.354;2023-10-31T16:41:50;12.30;99.90
38910;DHT22;24676;51.360;12.354;2023-10-31T16:44:34;12.30;99.90
38910;DHT22;24676;51.360;12.354;2023-10-31T16:47:18;12.30;99.90
38910;DHT22;24676;51.360;12.354;2023-10-31T16:50:03;12.30;99.90
38910;DHT22;24676;51.360;12.354;2023-10-31T16:52:47;12.30;99.90
38910;DHT22;24676;51.360;12.354;2023-10-31T16:55:32;12.30;99.90
38910;DHT22;24676;51.360;12.354;2023-10-31T16:58:16;12.30;99.90
38910;DHT22;24676;51.360;12.354;2023-10-31T17:01:00;12.30;99.90
38910;DHT22;24676;51.360;12.354;2023-10-31T17:03:44;12.20;99.90
38910;DHT22;24676;51.360;12.354;2023-10-31T17:06:29;12.20;99.90